Terminal Aerodrome Forecast
Issued by NWS Grand Forks, ND

Home | Current Version | Previous Version | Graphics & Text | Print | Product List | Glossary On
Versions: 1 2 3 4 5 6 7 8 9 10 11 12 13
000
FTUS43 KFGF 171727
TAFFAR
TAF
KFAR 171727Z 1718/1818 20012KT P6SM SKC
     FM180400 19011KT P6SM SKC WS020/24040KT
     FM181200 21010KT P6SM SCT250 WS020/28035KT
     FM181400 26013KT P6SM FEW250
     FM181600 29017G26KT P6SM FEW250=

USA.gov is the U.S. government's official web portal to all federal, state and local government web resources and services.